Time;durP1;ratioP1;P1;durP2;ratioP2;P2;SDS_P1;SDS_P2;PMS_P1;PMS_P2;Temp;Humidity;BMP_temperature;BMP_pressure;BME280_temperature;BME280_humidity;BME280_pressure;Samples;Min_cycle;Max_cycle;Signal;HPM_P1;HPM_P2
2022/03/11 00:01:59;;;;;;;13.15;6.63;;;5.10;99.90;;;;;;5004303;28;20183;-84
2022/03/11 00:04:24;;;;;;;15.07;6.75;;;5.00;99.90;;;;;;4982736;28;20579;-84
2022/03/11 00:06:50;;;;;;;12.43;6.35;;;5.10;99.90;;;;;;4993856;28;20366;-84
2022/03/11 00:09:15;;;;;;;15.40;5.93;;;5.00;99.90;;;;;;5003206;28;20383;-84
2022/03/11 00:11:41;;;;;;;16.40;7.20;;;5.00;99.90;;;;;;4985501;28;20391;-85
2022/03/11 00:14:06;;;;;;;13.90;6.80;;;4.80;99.90;;;;;;4978708;28;20490;-84
2022/03/11 00:16:32;;;;;;;13.10;6.88;;;4.70;99.90;;;;;;4977531;28;20039;-84
2022/03/11 00:18:58;;;;;;;10.98;5.43;;;4.60;99.90;;;;;;4998271;28;20081;-84
2022/03/11 00:21:23;;;;;;;10.23;6.07;;;4.40;99.90;;;;;;4998091;28;20122;-84
2022/03/11 00:23:49;;;;;;;11.70;6.13;;;4.30;99.90;;;;;;5007255;28;20046;-83
2022/03/11 00:26:14;;;;;;;12.45;6.60;;;4.30;99.90;;;;;;5017770;28;20496;-83
2022/03/11 00:28:40;;;;;;;19.40;7.47;;;4.00;99.90;;;;;;5014195;28;20042;-84
2022/03/11 00:31:06;;;;;;;14.20;6.85;;;3.80;99.90;;;;;;4997784;28;20444;-84
2022/03/11 00:33:32;;;;;;;13.30;6.70;;;3.60;99.90;;;;;;4997880;28;20125;-84
2022/03/11 00:35:57;;;;;;;14.60;7.30;;;3.50;99.90;;;;;;4997953;28;20537;-84
2022/03/11 00:38:23;;;;;;;17.40;6.97;;;3.30;99.90;;;;;;5010671;28;20104;-84
2022/03/11 00:40:51;;;;;;;15.50;6.82;;;3.20;99.90;;;;;;5015896;28;20042;-84
2022/03/11 00:43:17;;;;;;;12.30;6.25;;;3.20;99.90;;;;;;5017474;28;20165;-83
2022/03/11 00:45:43;;;;;;;15.65;7.05;;;3.10;99.90;;;;;;5017875;28;20057;-84
2022/03/11 00:48:09;;;;;;;17.17;6.70;;;3.30;99.90;;;;;;5004921;28;20050;-84
2022/03/11 00:50:35;;;;;;;11.65;5.80;;;3.20;99.90;;;;;;4980647;28;20096;-83
2022/03/11 00:53:02;;;;;;;12.90;6.10;;;3.20;99.90;;;;;;5016089;28;20088;-84
2022/03/11 00:55:27;;;;;;;10.63;5.68;;;3.10;99.90;;;;;;5017215;28;20459;-83
2022/03/11 00:57:53;;;;;;;14.13;7.22;;;3.00;99.90;;;;;;5007028;28;20125;-84
2022/03/11 01:00:19;;;;;;;14.18;7.45;;;3.00;99.90;;;;;;4996858;28;20429;-84
2022/03/11 01:02:44;;;;;;;15.32;7.40;;;2.90;99.90;;;;;;4997735;28;20085;-84
2022/03/11 01:05:10;;;;;;;21.10;7.35;;;2.90;99.90;;;;;;4997602;28;20046;-83
2022/03/11 01:07:36;;;;;;;15.73;7.05;;;2.90;99.90;;;;;;4995832;28;20038;-84
2022/03/11 01:10:03;;;;;;;18.50;8.95;;;2.90;99.90;;;;;;4997105;28;20257;-84
2022/03/11 01:12:28;;;;;;;15.60;8.00;;;2.80;99.90;;;;;;4997184;28;20046;-84
2022/03/11 01:14:54;;;;;;;14.32;6.72;;;2.70;99.90;;;;;;4997316;28;20050;-84
2022/03/11 01:17:20;;;;;;;15.25;7.40;;;2.60;99.90;;;;;;4996921;28;20080;-84
2022/03/11 01:19:45;;;;;;;19.48;7.13;;;3.00;99.90;;;;;;4997387;28;20039;-84
2022/03/11 01:22:11;;;;;;;12.02;5.85;;;2.60;99.90;;;;;;4995009;28;20050;-84
2022/03/11 01:24:37;;;;;;;13.55;6.97;;;2.60;99.90;;;;;;4997109;28;20394;-84
2022/03/11 01:27:02;;;;;;;13.82;6.50;;;2.60;99.90;;;;;;4995623;28;20485;-84
2022/03/11 01:29:28;;;;;;;18.77;7.25;;;2.60;99.90;;;;;;4996780;28;20057;-83
2022/03/11 01:31:54;;;;;;;15.60;7.07;;;2.70;99.90;;;;;;4996680;28;20069;-84
2022/03/11 01:34:20;;;;;;;14.88;7.90;;;2.60;99.90;;;;;;4996723;28;20050;-84
2022/03/11 01:36:46;;;;;;;15.93;7.32;;;2.60;99.90;;;;;;5011103;28;20045;-83
2022/03/11 01:39:12;;;;;;;21.60;9.25;;;2.50;99.90;;;;;;5016236;28;20049;-84
2022/03/11 01:41:38;;;;;;;16.05;8.25;;;2.50;99.90;;;;;;5015385;28;20408;-84
2022/03/11 01:44:06;;;;;;;16.98;7.60;;;2.40;99.90;;;;;;5003794;28;20139;-84
2022/03/11 01:46:32;;;;;;;19.70;8.38;;;3.10;99.90;;;;;;4996579;28;20549;-84
2022/03/11 01:48:59;;;;;;;14.32;7.60;;;2.40;99.90;;;;;;4995530;28;20046;-84
2022/03/11 01:51:29;;;;;;;16.95;8.65;;;2.30;99.90;;;;;;5006104;28;20125;-83
2022/03/11 01:53:55;;;;;;;15.85;8.25;;;2.30;99.90;;;;;;5015086;28;20042;-84
2022/03/11 01:56:22;;;;;;;17.30;8.30;;;2.60;99.90;;;;;;5003679;28;20401;-84
2022/03/11 01:58:49;;;;;;;17.33;7.80;;;2.40;99.90;;;;;;4995645;28;20108;-84
2022/03/11 02:01:16;;;;;;;20.10;8.80;;;2.40;99.90;;;;;;4979040;28;20042;-83
2022/03/11 02:03:41;;;;;;;18.80;9.27;;;2.20;99.90;;;;;;4995154;28;20100;-84
2022/03/11 02:06:08;;;;;;;21.25;9.50;;;2.10;99.90;;;;;;4994569;28;20568;-83
2022/03/11 02:08:35;;;;;;;17.85;9.77;;;2.20;99.90;;;;;;4995130;28;20104;-84
2022/03/11 02:11:01;;;;;;;16.98;9.10;;;2.20;99.90;;;;;;4996018;28;20188;-83
2022/03/11 02:13:27;;;;;;;19.15;10.10;;;2.20;99.90;;;;;;4996168;28;20054;-83
2022/03/11 02:15:53;;;;;;;18.30;8.75;;;2.40;99.90;;;;;;4994931;28;20401;-83
2022/03/11 02:18:19;;;;;;;18.27;10.50;;;2.30;99.90;;;;;;5006882;28;20042;-84
2022/03/11 02:20:48;;;;;;;20.25;9.63;;;2.40;99.90;;;;;;5013909;28;20049;-84
2022/03/11 02:23:17;;;;;;;18.90;10.77;;;2.40;99.90;;;;;;5010312;28;20090;-84
2022/03/11 02:25:42;;;;;;;20.75;10.73;;;2.40;99.90;;;;;;4996248;28;20044;-84
2022/03/11 02:28:08;;;;;;;23.08;10.55;;;2.40;99.90;;;;;;4995854;28;20046;-84
2022/03/11 02:30:33;;;;;;;16.75;9.45;;;2.40;99.90;;;;;;4995764;28;20069;-84
2022/03/11 02:32:59;;;;;;;24.02;11.55;;;2.70;99.90;;;;;;4996638;28;20109;-85
2022/03/11 02:35:25;;;;;;;22.67;11.88;;;2.60;99.90;;;;;;4995792;28;20038;-85
2022/03/11 02:37:50;;;;;;;20.95;10.55;;;2.50;99.90;;;;;;5000869;28;20047;-85
2022/03/11 02:40:16;;;;;;;24.77;12.88;;;2.50;99.90;;;;;;5002484;28;20038;-86
2022/03/11 02:42:41;;;;;;;17.38;9.93;;;2.50;99.90;;;;;;4995634;28;20105;-85
2022/03/11 02:45:08;;;;;;;22.60;9.75;;;2.50;99.90;;;;;;4995865;28;20061;-85
2022/03/11 02:47:33;;;;;;;23.27;13.25;;;2.50;99.90;;;;;;5013129;28;20072;-85
2022/03/11 02:49:59;;;;;;;30.67;12.80;;;2.50;99.90;;;;;;5013808;28;20045;-85
2022/03/11 02:52:29;;;;;;;27.63;13.15;;;2.50;99.90;;;;;;5014914;28;20060;-85
2022/03/11 02:54:55;;;;;;;24.80;13.18;;;2.40;99.90;;;;;;5014883;28;20050;-85
2022/03/11 02:57:21;;;;;;;24.00;13.45;;;2.50;99.90;;;;;;4995429;28;20513;-85
2022/03/11 02:59:47;;;;;;;29.75;13.90;;;2.40;99.90;;;;;;5000114;28;20078;-85
2022/03/11 03:02:13;;;;;;;28.50;13.15;;;2.50;99.90;;;;;;4997561;28;20053;-85
2022/03/11 03:04:39;;;;;;;24.17;12.65;;;2.40;99.90;;;;;;5015312;28;20445;-85
2022/03/11 03:07:05;;;;;;;28.58;14.30;;;2.40;99.90;;;;;;4997617;28;20046;-85
2022/03/11 03:09:30;;;;;;;24.20;12.45;;;2.40;99.90;;;;;;4996318;28;20082;-86
2022/03/11 03:11:56;;;;;;;25.73;14.20;;;2.40;99.90;;;;;;5014040;28;20147;-85
2022/03/11 03:14:21;;;;;;;27.17;13.48;;;2.20;99.90;;;;;;5015060;28;20044;-85
2022/03/11 03:16:47;;;;;;;28.88;13.80;;;2.30;99.90;;;;;;4997218;28;20386;-85
2022/03/11 03:19:13;;;;;;;29.02;15.60;;;2.20;99.90;;;;;;4997873;28;20485;-86
2022/03/11 03:21:38;;;;;;;28.83;15.48;;;2.10;99.90;;;;;;5014158;28;20080;-86
2022/03/11 03:24:05;;;;;;;32.25;15.77;;;2.00;99.90;;;;;;4996478;28;20150;-85
2022/03/11 03:26:31;;;;;;;29.80;15.02;;;1.90;99.90;;;;;;4995177;28;20120;-85
2022/03/11 03:28:56;;;;;;;29.67;15.05;;;2.00;99.90;;;;;;4993870;28;20473;-85
2022/03/11 03:31:22;;;;;;;28.05;16.40;;;1.90;99.90;;;;;;4995276;28;20097;-85
2022/03/11 03:33:48;;;;;;;34.03;17.60;;;2.00;99.90;;;;;;4993669;28;20101;-85
2022/03/11 03:36:14;;;;;;;30.25;16.42;;;2.00;99.90;;;;;;5008741;28;20412;-86
2022/03/11 03:38:40;;;;;;;38.47;18.27;;;2.00;99.90;;;;;;5013681;28;20041;-86
2022/03/11 03:41:05;;;;;;;27.52;14.95;;;2.10;99.90;;;;;;5013283;28;20053;-85
2022/03/11 03:43:31;;;;;;;29.13;15.18;;;2.10;99.90;;;;;;5011714;28;20112;-85
2022/03/11 03:45:56;;;;;;;36.33;17.08;;;2.10;99.90;;;;;;5013117;28;20049;-85
2022/03/11 03:48:22;;;;;;;30.88;15.98;;;2.00;99.90;;;;;;5013089;28;20125;-86
2022/03/11 03:50:47;;;;;;;23.70;12.73;;;2.10;99.90;;;;;;5002345;28;20489;-85
2022/03/11 03:53:13;;;;;;;29.10;15.57;;;2.10;99.90;;;;;;4993507;28;20042;-85
2022/03/11 03:55:39;;;;;;;29.48;15.93;;;2.20;99.90;;;;;;4994352;28;20493;-85
2022/03/11 03:58:04;;;;;;;37.20;18.27;;;2.20;99.90;;;;;;5012065;28;20137;-86
2022/03/11 04:00:30;;;;;;;33.90;17.52;;;2.10;99.90;;;;;;5013447;28;20049;-86
2022/03/11 04:02:55;;;;;;;27.35;14.02;;;2.00;99.90;;;;;;5014211;28;20050;-85
2022/03/11 04:05:21;;;;;;;29.63;16.27;;;2.00;99.90;;;;;;4996484;28;20437;-85
2022/03/11 04:07:47;;;;;;;35.92;18.77;;;2.00;99.90;;;;;;5012978;28;20065;-85
2022/03/11 04:10:14;;;;;;;31.35;18.65;;;2.00;99.90;;;;;;5007977;28;20049;-86
2022/03/11 04:12:40;;;;;;;34.45;15.98;;;2.00;99.90;;;;;;4993442;28;20046;-85
2022/03/11 04:15:07;;;;;;;33.45;17.00;;;1.90;99.90;;;;;;4994612;28;20046;-85
2022/03/11 04:17:33;;;;;;;30.90;16.50;;;2.00;99.90;;;;;;5007092;28;20493;-85
2022/03/11 04:20:02;;;;;;;30.40;14.35;;;1.80;99.90;;;;;;5014030;28;20049;-85
2022/03/11 04:22:27;;;;;;;31.80;16.02;;;1.90;99.90;;;;;;5012774;28;20405;-85
2022/03/11 04:24:53;;;;;;;33.00;17.70;;;1.90;99.90;;;;;;5012894;28;20048;-85
2022/03/11 04:27:19;;;;;;;30.42;16.23;;;2.00;99.90;;;;;;4996446;28;20098;-85
2022/03/11 04:29:44;;;;;;;34.08;18.05;;;1.80;99.90;;;;;;5014219;28;20096;-86
2022/03/11 04:32:11;;;;;;;34.47;17.90;;;1.80;99.90;;;;;;5012788;28;20066;-85
2022/03/11 04:34:37;;;;;;;31.98;16.48;;;1.80;99.90;;;;;;5012908;28;20038;-86
2022/03/11 04:37:03;;;;;;;28.60;14.95;;;1.70;99.90;;;;;;5005725;28;20117;-85
2022/03/11 04:39:29;;;;;;;33.97;18.35;;;1.70;99.90;;;;;;4993021;28;20057;-86
2022/03/11 04:41:55;;;;;;;31.30;18.10;;;1.80;99.90;;;;;;4992929;28;20057;-86
2022/03/11 04:44:21;;;;;;;36.72;20.65;;;1.70;99.90;;;;;;4994200;28;20121;-85
2022/03/11 04:46:47;;;;;;;35.35;19.70;;;1.70;99.90;;;;;;4993088;28;20082;-86
2022/03/11 04:49:13;;;;;;;31.40;16.42;;;1.60;99.90;;;;;;4992940;28;20054;-86
2022/03/11 04:51:38;;;;;;;37.95;17.45;;;1.50;99.90;;;;;;4992578;28;20043;-85
2022/03/11 04:54:06;;;;;;;35.33;18.52;;;1.50;99.90;;;;;;4994121;28;20109;-85
2022/03/11 04:56:32;;;;;;;30.60;16.83;;;1.50;99.90;;;;;;4998658;28;20053;-85
2022/03/11 04:59:01;;;;;;;30.98;16.00;;;1.40;99.90;;;;;;5017313;28;20046;-85
2022/03/11 05:01:26;;;;;;;31.60;17.67;;;1.40;99.90;;;;;;5017205;28;20499;-86
2022/03/11 05:03:52;;;;;;;33.83;17.25;;;1.50;99.90;;;;;;5015890;28;20038;-86
2022/03/11 05:06:17;;;;;;;35.17;19.23;;;1.30;99.90;;;;;;5008331;28;20097;-86
2022/03/11 05:08:43;;;;;;;37.60;18.55;;;1.40;99.90;;;;;;4997439;28;20047;-85
2022/03/11 05:11:09;;;;;;;39.13;20.92;;;1.40;99.90;;;;;;4997193;28;20093;-85
2022/03/11 05:13:35;;;;;;;40.67;21.50;;;1.30;99.90;;;;;;5000548;28;20029;-86
2022/03/11 05:16:01;;;;;;;33.83;18.13;;;1.50;99.90;;;;;;5017008;28;20046;-86
2022/03/11 05:18:26;;;;;;;28.15;12.98;;;1.50;99.90;;;;;;4998155;28;20532;-86
2022/03/11 05:20:53;;;;;;;32.38;16.10;;;1.40;99.90;;;;;;4996012;28;20130;-85
2022/03/11 05:23:19;;;;;;;31.70;13.88;;;1.40;99.90;;;;;;4998202;28;20126;-85
2022/03/11 05:25:44;;;;;;;38.47;16.95;;;1.40;99.90;;;;;;5016983;28;20461;-85
2022/03/11 05:28:10;;;;;;;31.30;15.70;;;1.30;99.90;;;;;;5016885;28;20374;-86
2022/03/11 05:30:36;;;;;;;36.03;17.48;;;1.30;99.90;;;;;;5016816;28;20049;-85
2022/03/11 05:33:02;;;;;;;35.20;17.23;;;1.20;99.90;;;;;;5013051;28;20526;-86
2022/03/11 05:35:28;;;;;;;38.28;19.98;;;1.20;99.90;;;;;;4997105;28;20050;-86
2022/03/11 05:37:54;;;;;;;35.55;16.80;;;1.20;99.90;;;;;;4996967;28;20406;-86
2022/03/11 05:40:19;;;;;;;39.95;15.80;;;1.20;99.90;;;;;;5016345;28;20053;-86
2022/03/11 05:42:45;;;;;;;36.97;17.88;;;1.30;99.90;;;;;;5016434;28;20052;-86
2022/03/11 05:45:12;;;;;;;35.55;17.58;;;1.40;99.90;;;;;;5016198;28;20125;-86
2022/03/11 05:47:38;;;;;;;35.10;17.67;;;1.50;99.90;;;;;;5002269;28;20046;-86
2022/03/11 05:50:04;;;;;;;30.75;17.13;;;1.50;99.90;;;;;;4995777;28;20512;-85
2022/03/11 05:52:30;;;;;;;34.08;17.40;;;1.40;99.90;;;;;;4995609;28;20648;-86
2022/03/11 05:54:56;;;;;;;37.53;17.55;;;1.50;99.90;;;;;;5012303;28;20057;-86
2022/03/11 05:57:21;;;;;;;33.78;15.98;;;1.50;99.90;;;;;;5015061;28;20038;-86
2022/03/11 05:59:47;;;;;;;26.20;15.15;;;1.30;99.90;;;;;;5016503;28;20092;-86
2022/03/11 06:02:12;;;;;;;31.10;15.43;;;1.30;99.90;;;;;;5016321;28;20042;-86
2022/03/11 06:04:38;;;;;;;28.35;14.25;;;1.30;99.90;;;;;;5017653;28;20068;-86
2022/03/11 06:07:04;;;;;;;31.13;15.73;;;1.30;99.90;;;;;;5031579;28;20029;-86
2022/03/11 06:09:30;;;;;;;30.98;16.02;;;1.50;99.90;;;;;;5038505;28;20030;-86
2022/03/11 06:11:56;;;;;;;33.92;17.58;;;1.50;99.90;;;;;;5030257;28;20026;-86
2022/03/11 06:14:22;;;;;;;31.90;14.38;;;1.50;99.90;;;;;;5017090;28;20045;-86
2022/03/11 06:16:47;;;;;;;31.95;16.13;;;1.60;99.90;;;;;;4997715;28;20389;-86
2022/03/11 06:19:13;;;;;;;32.10;17.83;;;1.50;99.90;;;;;;4992563;28;20057;-87
2022/03/11 06:21:39;;;;;;;34.50;18.45;;;1.70;99.90;;;;;;4993901;28;20489;-86
2022/03/11 06:24:05;;;;;;;32.42;16.15;;;1.70;99.90;;;;;;5000638;28;20477;-85
2022/03/11 06:26:31;;;;;;;28.60;15.25;;;1.60;99.90;;;;;;5012634;28;20049;-86
2022/03/11 06:28:56;;;;;;;32.58;18.55;;;1.60;99.90;;;;;;5015726;28;20101;-86
2022/03/11 06:31:22;;;;;;;26.40;13.75;;;1.60;99.90;;;;;;5015410;28;20400;-86
2022/03/11 06:33:47;;;;;;;29.33;14.80;;;1.80;99.90;;;;;;5014335;28;20107;-86
2022/03/11 06:36:13;;;;;;;29.73;14.98;;;1.80;99.90;;;;;;5014369;28;20038;-86
2022/03/11 06:38:38;;;;;;;30.08;15.50;;;1.90;99.90;;;;;;5014482;28;20511;-87
2022/03/11 06:41:04;;;;;;;32.53;16.80;;;2.00;99.90;;;;;;5014546;28;20484;-85
2022/03/11 06:43:29;;;;;;;26.63;13.77;;;2.00;99.90;;;;;;5014052;28;20073;-86
2022/03/11 06:45:55;;;;;;;31.40;15.93;;;2.10;99.90;;;;;;5015582;28;20381;-86
2022/03/11 06:48:21;;;;;;;34.20;15.50;;;2.20;99.90;;;;;;5014106;28;20176;-87
2022/03/11 06:50:48;;;;;;;27.55;11.73;;;2.30;99.90;;;;;;5014487;28;20436;-84
2022/03/11 06:53:14;;;;;;;28.10;14.18;;;2.30;99.90;;;;;;5014371;28;20110;-84
2022/03/11 06:55:40;;;;;;;31.90;15.63;;;2.30;99.90;;;;;;5015426;28;20065;-86
2022/03/11 06:58:05;;;;;;;29.73;17.38;;;2.40;99.90;;;;;;5013889;28;20046;-86
2022/03/11 07:00:31;;;;;;;34.08;15.88;;;2.40;99.90;;;;;;5015440;28;20042;-85
2022/03/11 07:02:56;;;;;;;23.92;13.63;;;2.50;99.90;;;;;;5007411;28;20049;-86
2022/03/11 07:05:22;;;;;;;32.10;17.13;;;2.60;99.90;;;;;;4998076;28;20053;-85
2022/03/11 07:07:47;;;;;;;30.85;15.27;;;2.60;99.90;;;;;;4996651;28;20053;-85
2022/03/11 07:10:15;;;;;;;30.38;15.40;;;2.70;99.90;;;;;;4978723;28;20073;-85
2022/03/11 07:12:41;;;;;;;26.77;14.98;;;2.80;99.90;;;;;;4998505;28;20081;-85
2022/03/11 07:15:07;;;;;;;28.13;15.25;;;2.90;99.90;;;;;;5008547;28;20128;-86
2022/03/11 07:17:33;;;;;;;32.33;17.17;;;2.90;99.90;;;;;;5003533;28;20523;-86
2022/03/11 07:19:59;;;;;;;34.80;15.98;;;3.00;99.90;;;;;;4994623;28;20038;-86
2022/03/11 07:22:25;;;;;;;26.83;14.70;;;3.00;99.90;;;;;;4996888;28;20081;-86
2022/03/11 07:24:51;;;;;;;29.42;16.35;;;3.10;99.90;;;;;;5003228;28;20035;-86
2022/03/11 07:27:16;;;;;;;29.15;16.42;;;3.20;99.90;;;;;;5008386;28;20061;-86
2022/03/11 07:29:42;;;;;;;27.52;15.13;;;3.30;99.90;;;;;;4984280;28;20116;-86
2022/03/11 07:32:15;;;;;;;26.42;14.85;;;3.30;99.90;;;;;;5007224;28;20033;-86
2022/03/11 07:34:41;;;;;;;24.95;13.35;;;3.40;99.90;;;;;;4987969;28;20559;-85
2022/03/11 07:37:08;;;;;;;26.73;15.23;;;3.50;99.90;;;;;;4996149;28;20046;-85
2022/03/11 07:39:35;;;;;;;29.50;15.48;;;3.60;99.90;;;;;;4995022;28;20065;-85
2022/03/11 07:42:01;;;;;;;32.05;14.27;;;3.60;99.90;;;;;;4995843;28;20129;-85
2022/03/11 07:44:26;;;;;;;31.33;15.10;;;3.70;99.90;;;;;;4994288;28;20058;-85
2022/03/11 07:46:52;;;;;;;30.02;13.40;;;3.70;99.90;;;;;;4998501;28;20050;-84
2022/03/11 07:49:18;;;;;;;27.27;13.65;;;3.80;99.90;;;;;;5001032;28;20046;-85
2022/03/11 07:51:44;;;;;;;27.05;15.05;;;3.90;99.90;;;;;;4984628;28;20046;-85
2022/03/11 07:54:10;;;;;;;25.08;12.98;;;4.00;99.90;;;;;;4999737;28;20061;-86
2022/03/11 07:56:35;;;;;;;29.02;12.38;;;4.10;99.90;;;;;;5000272;28;20125;-86
2022/03/11 07:59:02;;;;;;;25.80;14.32;;;4.20;99.90;;;;;;4995388;28;20054;-86
2022/03/11 08:01:28;;;;;;;28.05;14.98;;;4.20;99.90;;;;;;4996947;28;20046;-85
2022/03/11 08:03:54;;;;;;;28.77;15.55;;;4.30;99.90;;;;;;4992134;28;20043;-85
2022/03/11 08:06:19;;;;;;;33.25;17.65;;;4.40;99.90;;;;;;4992756;28;20061;-85
2022/03/11 08:08:45;;;;;;;28.08;15.55;;;4.50;99.90;;;;;;4975507;28;20046;-85
2022/03/11 08:11:11;;;;;;;27.25;14.68;;;4.50;99.90;;;;;;4991024;28;20051;-85
2022/03/11 08:13:37;;;;;;;27.08;13.82;;;4.60;99.90;;;;;;4994118;28;20133;-85
2022/03/11 08:16:03;;;;;;;31.25;15.70;;;3.70;99.90;;;;;;4993778;28;20470;-85
2022/03/11 08:18:30;;;;;;;28.67;14.38;;;4.70;99.90;;;;;;4994901;28;20129;-85
2022/03/11 08:20:55;;;;;;;26.08;12.93;;;4.70;99.90;;;;;;4993618;28;20058;-85
2022/03/11 08:23:21;;;;;;;28.10;16.38;;;4.80;99.90;;;;;;5001999;28;20042;-85
2022/03/11 08:25:47;;;;;;;32.20;16.25;;;4.90;99.90;;;;;;4994311;28;20401;-84
2022/03/11 08:28:13;;;;;;;27.52;14.07;;;4.90;99.90;;;;;;4990681;28;20061;-86
2022/03/11 08:30:40;;;;;;;25.63;14.80;;;4.90;99.90;;;;;;4992580;28;20038;-85
2022/03/11 08:33:07;;;;;;;23.63;13.13;;;5.00;99.90;;;;;;5004977;28;20051;-86
2022/03/11 08:35:32;;;;;;;25.42;14.85;;;5.00;99.90;;;;;;5000904;28;20060;-85
2022/03/11 08:37:59;;;;;;;28.40;15.32;;;5.10;99.90;;;;;;4996395;28;20046;-86
2022/03/11 08:40:26;;;;;;;31.90;15.80;;;5.10;99.90;;;;;;5013297;28;20050;-85
2022/03/11 08:42:52;;;;;;;23.40;14.25;;;5.20;99.90;;;;;;4998007;28;20104;-85
2022/03/11 08:45:21;;;;;;;24.23;12.55;;;5.20;99.90;;;;;;5015716;28;20046;-86
2022/03/11 08:47:47;;;;;;;23.08;13.57;;;5.30;99.90;;;;;;5016118;28;20156;-84
2022/03/11 08:50:13;;;;;;;28.40;14.02;;;5.30;99.90;;;;;;5013500;28;20096;-85
2022/03/11 08:52:40;;;;;;;28.42;14.02;;;5.40;99.90;;;;;;5012877;28;20050;-85
2022/03/11 08:55:06;;;;;;;27.77;14.50;;;5.60;99.90;;;;;;4999237;28;20046;-85
2022/03/11 08:57:31;;;;;;;28.40;15.50;;;5.70;99.90;;;;;;4994583;28;20042;-86
2022/03/11 08:59:57;;;;;;;30.02;16.30;;;5.60;99.90;;;;;;4993233;28;20061;-86
2022/03/11 09:02:23;;;;;;;29.55;16.25;;;5.70;99.90;;;;;;4993129;28;20043;-85
2022/03/11 09:04:49;;;;;;;26.48;14.82;;;5.60;99.90;;;;;;4994094;28;20046;-85
2022/03/11 09:07:15;;;;;;;26.55;14.40;;;5.70;99.90;;;;;;4993925;28;20088;-86
2022/03/11 09:09:41;;;;;;;26.90;14.50;;;5.70;99.90;;;;;;4994204;28;20061;-85
2022/03/11 09:12:07;;;;;;;27.15;14.40;;;5.70;99.90;;;;;;4996123;28;20050;-85
2022/03/11 09:14:33;;;;;;;26.08;13.98;;;5.80;99.90;;;;;;4996671;28;20394;-85
2022/03/11 09:16:59;;;;;;;28.73;15.18;;;6.70;99.90;;;;;;4995742;28;20034;-85
2022/03/11 09:19:25;;;;;;;28.45;14.98;;;5.90;99.90;;;;;;4993664;28;20081;-85
2022/03/11 09:21:50;;;;;;;27.85;15.82;;;6.00;99.90;;;;;;5014882;28;20096;-85
2022/03/11 09:24:17;;;;;;;26.85;14.75;;;6.00;99.90;;;;;;5014648;28;20042;-85
2022/03/11 09:26:51;;;;;;;28.50;14.50;;;6.20;99.70;;;;;;5014755;28;20064;-85
2022/03/11 09:29:17;;;;;;;25.30;14.35;;;6.20;99.90;;;;;;4995483;28;20054;-85
2022/03/11 09:31:42;;;;;;;29.83;14.95;;;6.20;97.50;;;;;;4994390;28;20596;-85
2022/03/11 09:34:08;;;;;;;27.27;15.50;;;6.40;96.80;;;;;;4993285;28;20042;-85
2022/03/11 09:36:34;;;;;;;24.52;12.65;;;6.40;95.80;;;;;;4994781;28;20061;-85
2022/03/11 09:38:59;;;;;;;24.23;14.25;;;6.60;95.20;;;;;;4995181;28;20046;-85
2022/03/11 09:41:29;;;;;;;23.08;12.77;;;6.70;93.40;;;;;;4977316;28;20410;-85
2022/03/11 09:43:56;;;;;;;27.52;14.65;;;6.70;92.40;;;;;;4994653;28;20061;-85
2022/03/11 09:46:22;;;;;;;28.98;14.68;;;6.80;92.00;;;;;;4996132;28;20412;-85
2022/03/11 09:48:47;;;;;;;32.70;15.68;;;7.00;88.60;;;;;;4996849;28;20049;-85
2022/03/11 09:51:17;;;;;;;22.58;13.45;;;7.30;89.50;;;;;;4997708;28;20052;-85
2022/03/11 09:53:42;;;;;;;27.50;14.50;;;7.50;82.80;;;;;;4996781;28;20050;-85
2022/03/11 09:56:08;;;;;;;26.75;15.35;;;7.70;82.10;;;;;;4997599;28;20064;-85
2022/03/11 09:58:34;;;;;;;23.25;14.45;;;7.90;77.30;;;;;;5001502;28;20049;-85
2022/03/11 10:01:00;;;;;;;23.92;13.27;;;8.00;74.30;;;;;;4997286;28;20053;-86
2022/03/11 10:03:29;;;;;;;25.67;15.75;;;8.00;73.20;;;;;;4997637;28;20046;-85
2022/03/11 10:05:55;;;;;;;26.52;14.80;;;8.10;72.00;;;;;;4997113;28;20481;-86
2022/03/11 10:08:32;;;;;;;21.45;13.73;;;8.20;73.50;;;;;;4995638;28;20100;-85
2022/03/11 10:11:18;;;;;;;29.08;15.73;;;8.20;70.20;;;;;;4996119;28;20396;-85
2022/03/11 10:13:44;;;;;;;26.98;14.43;;;8.20;69.00;;;;;;4989672;28;20150;-85
2022/03/11 10:16:21;;;;;;;23.33;14.10;;;8.50;70.20;;;;;;4996035;28;20058;-86
2022/03/11 10:18:57;;;;;;;25.63;15.05;;;8.90;63.90;;;;;;4996128;28;20547;-86
2022/03/11 10:21:37;;;;;;;24.25;14.32;;;8.60;62.60;;;;;;4997082;28;20043;-86
2022/03/11 10:24:06;;;;;;;24.85;14.70;;;8.60;60.50;;;;;;4996194;28;20050;-86
2022/03/11 10:26:40;;;;;;;24.35;14.90;;;8.50;60.90;;;;;;4996615;28;20421;-85
2022/03/11 10:29:09;;;;;;;24.08;15.23;;;8.60;61.60;;;;;;4996333;28;20081;-86
2022/03/11 10:31:39;;;;;;;21.58;12.40;;;8.80;61.50;;;;;;4996717;28;20078;-86
2022/03/11 10:34:26;;;;;;;26.25;14.95;;;9.00;58.30;;;;;;4998989;28;20397;-85
2022/03/11 10:36:58;;;;;;;25.20;15.10;;;9.00;57.80;;;;;;4995203;28;20057;-86
2022/03/11 10:39:36;;;;;;;23.48;14.07;;;9.20;56.40;;;;;;4996270;28;20046;-86
2022/03/11 10:42:19;;;;;;;21.95;14.13;;;9.20;54.30;;;;;;4996799;28;20489;-85
2022/03/11 10:45:04;;;;;;;23.67;13.45;;;9.50;55.10;;;;;;4979161;28;20050;-85
2022/03/11 10:47:36;;;;;;;25.67;14.60;;;9.70;55.10;;;;;;4994181;28;20050;-86
2022/03/11 10:50:09;;;;;;;23.80;14.48;;;9.70;51.40;;;;;;4993553;28;20057;-86
2022/03/11 10:52:44;;;;;;;22.48;14.48;;;9.70;49.80;;;;;;4991999;28;20048;-85
2022/03/11 10:55:28;;;;;;;26.95;15.05;;;9.70;51.00;;;;;;4999341;28;20046;-86
2022/03/11 10:57:56;;;;;;;23.95;14.48;;;9.50;49.40;;;;;;4973303;28;20043;-86
2022/03/11 11:00:30;;;;;;;29.08;15.18;;;9.70;49.20;;;;;;4972270;28;20281;-86
2022/03/11 11:03:01;;;;;;;24.63;14.20;;;9.80;49.40;;;;;;4972809;28;20053;-86
2022/03/11 11:05:28;;;;;;;23.42;14.18;;;10.10;48.20;;;;;;4972109;28;20047;-86
2022/03/11 11:07:57;;;;;;;23.38;13.35;;;10.30;46.20;;;;;;4970921;28;20047;-85
2022/03/11 11:10:26;;;;;;;21.80;14.10;;;10.10;45.40;;;;;;4971652;28;20413;-85
2022/03/11 11:12:58;;;;;;;23.38;14.13;;;10.10;47.30;;;;;;4955295;28;20050;-85
2022/03/11 11:15:24;;;;;;;22.92;13.18;;;10.20;46.90;;;;;;4972067;28;20090;-85
2022/03/11 11:17:51;;;;;;;21.25;11.55;;;9.90;45.80;;;;;;4974834;28;20090;-85
2022/03/11 11:20:37;;;;;;;22.33;13.20;;;10.00;45.20;;;;;;4974735;28;20114;-86
2022/03/11 11:23:05;;;;;;;24.48;13.40;;;10.20;45.00;;;;;;4975000;28;20045;-85
2022/03/11 11:25:33;;;;;;;20.35;13.00;;;10.10;44.40;;;;;;4971725;28;20051;-86
2022/03/11 11:28:08;;;;;;;22.52;13.88;;;10.30;44.60;;;;;;4972329;28;20054;-86
2022/03/11 11:30:35;;;;;;;26.20;13.10;;;10.30;43.80;;;;;;4972432;28;20109;-86
2022/03/11 11:33:01;;;;;;;21.15;11.70;;;10.40;43.10;;;;;;4975078;28;20039;-86
2022/03/11 11:35:32;;;;;;;21.20;13.40;;;10.10;42.50;;;;;;4974931;28;20081;-86
2022/03/11 11:38:03;;;;;;;20.38;12.45;;;10.10;43.60;;;;;;4975622;28;20058;-85
2022/03/11 11:40:32;;;;;;;19.77;12.57;;;10.50;43.50;;;;;;4974403;28;20540;-85
2022/03/11 11:43:28;;;;;;;23.05;13.60;;;10.70;43.20;;;;;;4974868;28;20113;-85
2022/03/11 11:46:02;;;;;;;20.00;13.18;;;11.00;41.30;;;;;;4974670;28;20046;-86
2022/03/11 11:48:43;;;;;;;23.73;12.93;;;11.10;42.00;;;;;;4973318;28;20677;-86
2022/03/11 11:51:43;;;;;;;24.75;12.98;;;11.30;40.90;;;;;;4973625;28;20062;-86
2022/03/11 11:54:11;;;;;;;22.52;12.65;;;11.50;36.90;;;;;;4973949;28;20054;-85
2022/03/11 11:56:45;;;;;;;18.95;12.52;;;11.40;36.40;;;;;;4972038;28;20059;-86
2022/03/11 11:59:25;;;;;;;19.45;12.65;;;11.10;36.10;;;;;;4982467;28;20073;-85
2022/03/11 12:01:53;;;;;;;19.75;12.52;;;11.00;36.50;;;;;;4990525;28;20058;-85
2022/03/11 12:04:33;;;;;;;23.73;13.90;;;11.20;36.90;;;;;;4991609;28;20054;-85
2022/03/11 12:07:09;;;;;;;21.33;12.45;;;11.20;36.20;;;;;;4995664;28;20101;-85
2022/03/11 12:09:38;;;;;;;22.10;13.00;;;11.20;37.00;;;;;;4995009;28;20603;-85
2022/03/11 12:12:04;;;;;;;24.35;12.73;;;11.20;35.40;;;;;;4995835;28;20081;-86
2022/03/11 12:14:30;;;;;;;21.60;12.27;;;11.20;35.70;;;;;;4994397;28;20092;-85
2022/03/11 12:17:07;;;;;;;22.15;13.63;;;11.30;36.20;;;;;;4993792;28;20046;-85
2022/03/11 12:19:41;;;;;;;21.95;12.55;;;11.50;34.80;;;;;;4997925;28;20710;-86
2022/03/11 12:22:52;;;;;;;29.10;11.75;;;11.60;33.00;;;;;;4998614;28;20081;-85
2022/03/11 12:25:21;;;;;;;20.17;12.52;;;11.40;33.10;;;;;;4955786;28;20047;-86
2022/03/11 12:28:03;;;;;;;19.80;13.65;;;11.60;33.30;;;;;;4986997;28;20137;-85
2022/03/11 12:30:32;;;;;;;21.95;12.52;;;11.70;32.30;;;;;;4994296;28;20532;-85
2022/03/11 12:33:01;;;;;;;22.23;11.55;;;11.80;33.40;;;;;;4976966;28;20061;-85
2022/03/11 12:35:27;;;;;;;16.92;11.07;;;12.00;32.50;;;;;;4994841;28;20181;-86
2022/03/11 12:37:52;;;;;;;19.40;12.02;;;12.00;30.70;;;;;;4994422;28;20129;-85
2022/03/11 12:40:25;;;;;;;18.52;12.07;;;12.30;31.20;;;;;;4993321;28;20136;-86